QNJ weather

Annemasse Airport
Annemasse, Rhône Alpes, France

Public forecast

Using degrees Celsius for public forecast. Weather courtesy of forecast.io.

METAR (pilot weather report)

Closest report is Geneva Cointrin International Airport, 7.2 nm (13.3 km) WNW. Retrieved 2019/06/18 22:20 UTC (12 minutes ago):

LSGG 182220Z AUTO VRB02KT 9999 NCD 20/13 Q1014 NOSIG

TAF (pilot weather forecast)

Closest forecast is Geneva Cointrin International Airport, 7.2 nm (13.3 km) WNW. Retrieved 2019/06/18 21:36 UTC (56 minutes ago):

TAF LSGG 182025Z 1821/2003 VRB03KT CAVOK TX30/1915Z TN16/1904Z BECMG 1909/1911 9999 FEW040 BECMG 1912/1914 22010KT TEMPO 1921/2003 FEW040CB